sensor_id;sensor_type;location;lat;lon;timestamp;P1;durP1;ratioP1;P2;durP2;ratioP2
8704;SDS011;4389;41.932;25.904;2023-07-31T00:01:18;3.20;;;2.10;;
8704;SDS011;4389;41.932;25.904;2023-07-31T00:03:45;7.80;;;1.93;;
8704;SDS011;4389;41.932;25.904;2023-07-31T00:06:12;3.83;;;1.90;;
8704;SDS011;4389;41.932;25.904;2023-07-31T00:08:39;5.50;;;2.60;;
8704;SDS011;4389;41.932;25.904;2023-07-31T00:11:07;3.77;;;2.27;;
8704;SDS011;4389;41.932;25.904;2023-07-31T00:13:34;2.13;;;1.73;;
8704;SDS011;4389;41.932;25.904;2023-07-31T00:16:00;2.07;;;1.87;;
8704;SDS011;4389;41.932;25.904;2023-07-31T00:18:28;3.90;;;2.10;;
8704;SDS011;4389;41.932;25.904;2023-07-31T00:20:55;3.13;;;1.67;;
8704;SDS011;4389;41.932;25.904;2023-07-31T00:23:22;5.30;;;3.80;;
8704;SDS011;4389;41.932;25.904;2023-07-31T00:25:49;2.70;;;1.87;;
8704;SDS011;4389;41.932;25.904;2023-07-31T00:28:17;3.53;;;2.47;;
8704;SDS011;4389;41.932;25.904;2023-07-31T00:30:43;2.73;;;2.10;;
8704;SDS011;4389;41.932;25.904;2023-07-31T00:33:10;2.47;;;1.70;;
8704;SDS011;4389;41.932;25.904;2023-07-31T00:35:37;5.43;;;2.90;;
8704;SDS011;4389;41.932;25.904;2023-07-31T00:38:04;3.00;;;1.90;;
8704;SDS011;4389;41.932;25.904;2023-07-31T00:40:34;3.67;;;1.97;;
8704;SDS011;4389;41.932;25.904;2023-07-31T00:43:01;4.77;;;2.20;;
8704;SDS011;4389;41.932;25.904;2023-07-31T00:45:29;5.40;;;2.40;;
8704;SDS011;4389;41.932;25.904;2023-07-31T00:47:57;5.03;;;3.50;;
8704;SDS011;4389;41.932;25.904;2023-07-31T00:50:24;3.37;;;2.60;;
8704;SDS011;4389;41.932;25.904;2023-07-31T00:52:51;3.67;;;2.60;;
8704;SDS011;4389;41.932;25.904;2023-07-31T00:55:18;5.07;;;2.33;;
8704;SDS011;4389;41.932;25.904;2023-07-31T00:57:46;5.10;;;2.20;;
8704;SDS011;4389;41.932;25.904;2023-07-31T01:00:15;4.87;;;3.00;;
8704;SDS011;4389;41.932;25.904;2023-07-31T01:02:43;3.10;;;2.07;;
8704;SDS011;4389;41.932;25.904;2023-07-31T01:05:10;6.00;;;1.93;;
8704;SDS011;4389;41.932;25.904;2023-07-31T01:07:39;3.77;;;1.83;;
8704;SDS011;4389;41.932;25.904;2023-07-31T01:10:20;9.60;;;2.33;;
8704;SDS011;4389;41.932;25.904;2023-07-31T01:12:49;4.63;;;2.30;;
8704;SDS011;4389;41.932;25.904;2023-07-31T01:15:17;2.40;;;2.20;;
8704;SDS011;4389;41.932;25.904;2023-07-31T01:17:46;2.70;;;2.50;;
8704;SDS011;4389;41.932;25.904;2023-07-31T01:20:13;3.33;;;2.03;;
8704;SDS011;4389;41.932;25.904;2023-07-31T01:25:56;2.07;;;1.87;;
8704;SDS011;4389;41.932;25.904;2023-07-31T01:28:32;5.13;;;1.70;;
8704;SDS011;4389;41.932;25.904;2023-07-31T01:31:07;2.97;;;1.83;;
8704;SDS011;4389;41.932;25.904;2023-07-31T01:33:36;2.30;;;1.60;;
8704;SDS011;4389;41.932;25.904;2023-07-31T01:36:04;3.17;;;1.83;;
8704;SDS011;4389;41.932;25.904;2023-07-31T01:38:31;4.63;;;1.83;;
8704;SDS011;4389;41.932;25.904;2023-07-31T01:40:59;2.47;;;1.80;;
8704;SDS011;4389;41.932;25.904;2023-07-31T01:43:26;3.80;;;1.90;;
8704;SDS011;4389;41.932;25.904;2023-07-31T01:45:53;5.23;;;3.90;;
8704;SDS011;4389;41.932;25.904;2023-07-31T01:48:20;2.37;;;1.70;;
8704;SDS011;4389;41.932;25.904;2023-07-31T01:50:47;6.10;;;3.40;;
8704;SDS011;4389;41.932;25.904;2023-07-31T01:53:14;8.37;;;3.70;;
8704;SDS011;4389;41.932;25.904;2023-07-31T01:55:41;5.50;;;2.93;;
8704;SDS011;4389;41.932;25.904;2023-07-31T01:58:10;4.17;;;2.50;;
8704;SDS011;4389;41.932;25.904;2023-07-31T02:00:37;4.50;;;2.20;;
8704;SDS011;4389;41.932;25.904;2023-07-31T02:03:04;2.63;;;2.00;;
8704;SDS011;4389;41.932;25.904;2023-07-31T02:05:31;3.87;;;1.80;;
8704;SDS011;4389;41.932;25.904;2023-07-31T02:07:57;5.43;;;1.60;;
8704;SDS011;4389;41.932;25.904;2023-07-31T02:10:24;3.83;;;1.70;;
8704;SDS011;4389;41.932;25.904;2023-07-31T02:12:51;3.20;;;1.80;;
8704;SDS011;4389;41.932;25.904;2023-07-31T02:15:19;3.40;;;1.70;;
8704;SDS011;4389;41.932;25.904;2023-07-31T02:17:46;2.90;;;1.83;;
8704;SDS011;4389;41.932;25.904;2023-07-31T02:20:13;3.13;;;2.10;;
8704;SDS011;4389;41.932;25.904;2023-07-31T02:22:40;5.60;;;2.00;;
8704;SDS011;4389;41.932;25.904;2023-07-31T02:25:07;5.13;;;1.73;;
8704;SDS011;4389;41.932;25.904;2023-07-31T02:27:34;2.97;;;1.70;;
8704;SDS011;4389;41.932;25.904;2023-07-31T02:30:01;2.77;;;1.80;;
8704;SDS011;4389;41.932;25.904;2023-07-31T02:32:29;2.87;;;1.60;;
8704;SDS011;4389;41.932;25.904;2023-07-31T02:34:56;7.97;;;3.00;;
8704;SDS011;4389;41.932;25.904;2023-07-31T02:37:23;7.37;;;2.20;;
8704;SDS011;4389;41.932;25.904;2023-07-31T02:39:50;2.17;;;1.97;;
8704;SDS011;4389;41.932;25.904;2023-07-31T02:42:17;5.80;;;2.43;;
8704;SDS011;4389;41.932;25.904;2023-07-31T02:44:44;6.43;;;2.20;;
8704;SDS011;4389;41.932;25.904;2023-07-31T02:47:10;4.93;;;2.07;;
8704;SDS011;4389;41.932;25.904;2023-07-31T02:49:39;4.20;;;1.77;;
8704;SDS011;4389;41.932;25.904;2023-07-31T02:52:06;4.50;;;1.93;;
8704;SDS011;4389;41.932;25.904;2023-07-31T02:54:33;3.23;;;2.00;;
8704;SDS011;4389;41.932;25.904;2023-07-31T02:57:00;3.80;;;2.00;;
8704;SDS011;4389;41.932;25.904;2023-07-31T02:59:27;5.37;;;1.90;;
8704;SDS011;4389;41.932;25.904;2023-07-31T03:01:54;3.17;;;1.93;;
8704;SDS011;4389;41.932;25.904;2023-07-31T03:04:21;3.03;;;1.70;;
8704;SDS011;4389;41.932;25.904;2023-07-31T03:06:49;3.57;;;1.73;;
8704;SDS011;4389;41.932;25.904;2023-07-31T03:09:16;2.70;;;1.50;;
8704;SDS011;4389;41.932;25.904;2023-07-31T03:11:43;2.33;;;2.13;;
8704;SDS011;4389;41.932;25.904;2023-07-31T03:14:10;4.03;;;2.20;;
8704;SDS011;4389;41.932;25.904;2023-07-31T03:16:37;14.63;;;4.23;;
8704;SDS011;4389;41.932;25.904;2023-07-31T03:19:03;40.00;;;3.60;;
8704;SDS011;4389;41.932;25.904;2023-07-31T03:21:30;15.97;;;2.63;;
8704;SDS011;4389;41.932;25.904;2023-07-31T03:23:58;7.80;;;2.30;;
8704;SDS011;4389;41.932;25.904;2023-07-31T03:26:25;3.80;;;2.93;;
8704;SDS011;4389;41.932;25.904;2023-07-31T03:28:52;6.23;;;2.97;;
8704;SDS011;4389;41.932;25.904;2023-07-31T03:31:19;8.10;;;2.90;;
8704;SDS011;4389;41.932;25.904;2023-07-31T03:33:45;4.53;;;3.80;;
8704;SDS011;4389;41.932;25.904;2023-07-31T03:36:12;4.43;;;2.43;;
8704;SDS011;4389;41.932;25.904;2023-07-31T03:38:39;6.47;;;3.00;;
8704;SDS011;4389;41.932;25.904;2023-07-31T03:41:07;4.07;;;2.87;;
8704;SDS011;4389;41.932;25.904;2023-07-31T03:43:35;4.27;;;2.33;;
8704;SDS011;4389;41.932;25.904;2023-07-31T03:46:02;7.47;;;3.10;;
8704;SDS011;4389;41.932;25.904;2023-07-31T03:48:29;6.63;;;2.63;;
8704;SDS011;4389;41.932;25.904;2023-07-31T03:50:56;4.87;;;2.20;;
8704;SDS011;4389;41.932;25.904;2023-07-31T03:53:23;12.53;;;2.63;;
8704;SDS011;4389;41.932;25.904;2023-07-31T03:55:50;8.93;;;2.50;;
8704;SDS011;4389;41.932;25.904;2023-07-31T03:58:18;3.30;;;2.03;;
8704;SDS011;4389;41.932;25.904;2023-07-31T04:00:45;5.43;;;2.40;;
8704;SDS011;4389;41.932;25.904;2023-07-31T04:03:12;6.33;;;2.20;;
8704;SDS011;4389;41.932;25.904;2023-07-31T04:05:38;4.00;;;2.03;;
8704;SDS011;4389;41.932;25.904;2023-07-31T04:08:06;11.47;;;2.60;;
8704;SDS011;4389;41.932;25.904;2023-07-31T04:10:33;4.03;;;2.33;;
8704;SDS011;4389;41.932;25.904;2023-07-31T04:12:59;3.53;;;2.40;;
8704;SDS011;4389;41.932;25.904;2023-07-31T04:15:28;5.53;;;2.63;;
8704;SDS011;4389;41.932;25.904;2023-07-31T04:17:54;4.07;;;2.28;;
8704;SDS011;4389;41.932;25.904;2023-07-31T04:20:21;7.43;;;2.60;;
8704;SDS011;4389;41.932;25.904;2023-07-31T04:22:48;38.08;;;5.50;;
8704;SDS011;4389;41.932;25.904;2023-07-31T04:25:15;26.37;;;6.10;;
8704;SDS011;4389;41.932;25.904;2023-07-31T04:27:42;29.57;;;6.97;;
8704;SDS011;4389;41.932;25.904;2023-07-31T04:30:09;23.60;;;4.90;;
8704;SDS011;4389;41.932;25.904;2023-07-31T04:32:38;47.33;;;6.63;;
8704;SDS011;4389;41.932;25.904;2023-07-31T04:35:05;15.27;;;2.50;;
8704;SDS011;4389;41.932;25.904;2023-07-31T04:37:32;11.90;;;2.83;;
8704;SDS011;4389;41.932;25.904;2023-07-31T04:39:59;20.60;;;5.50;;
8704;SDS011;4389;41.932;25.904;2023-07-31T04:42:25;8.97;;;4.47;;
8704;SDS011;4389;41.932;25.904;2023-07-31T04:44:52;23.70;;;7.30;;
8704;SDS011;4389;41.932;25.904;2023-07-31T04:47:19;12.43;;;2.72;;
8704;SDS011;4389;41.932;25.904;2023-07-31T04:49:47;49.78;;;6.22;;
8704;SDS011;4389;41.932;25.904;2023-07-31T04:52:14;3.22;;;2.13;;
8704;SDS011;4389;41.932;25.904;2023-07-31T04:54:41;5.28;;;2.40;;
8704;SDS011;4389;41.932;25.904;2023-07-31T04:57:08;7.07;;;2.30;;
8704;SDS011;4389;41.932;25.904;2023-07-31T04:59:35;2.93;;;2.10;;
8704;SDS011;4389;41.932;25.904;2023-07-31T05:02:02;6.37;;;2.57;;
8704;SDS011;4389;41.932;25.904;2023-07-31T05:04:29;3.33;;;2.33;;
8704;SDS011;4389;41.932;25.904;2023-07-31T05:06:57;3.87;;;2.30;;
8704;SDS011;4389;41.932;25.904;2023-07-31T05:09:24;7.37;;;2.60;;
8704;SDS011;4389;41.932;25.904;2023-07-31T05:11:51;22.47;;;3.93;;
8704;SDS011;4389;41.932;25.904;2023-07-31T05:14:17;8.63;;;2.60;;
8704;SDS011;4389;41.932;25.904;2023-07-31T05:16:45;9.30;;;2.60;;
8704;SDS011;4389;41.932;25.904;2023-07-31T05:19:12;7.53;;;2.90;;
8704;SDS011;4389;41.932;25.904;2023-07-31T05:21:39;4.40;;;2.60;;
8704;SDS011;4389;41.932;25.904;2023-07-31T05:24:07;9.63;;;3.00;;
8704;SDS011;4389;41.932;25.904;2023-07-31T05:26:34;8.30;;;3.40;;
8704;SDS011;4389;41.932;25.904;2023-07-31T05:29:01;3.80;;;2.40;;
8704;SDS011;4389;41.932;25.904;2023-07-31T05:31:28;9.10;;;3.23;;
8704;SDS011;4389;41.932;25.904;2023-07-31T05:33:55;7.10;;;2.80;;
8704;SDS011;4389;41.932;25.904;2023-07-31T05:36:21;7.70;;;2.83;;
8704;SDS011;4389;41.932;25.904;2023-07-31T05:38:48;7.77;;;2.70;;
8704;SDS011;4389;41.932;25.904;2023-07-31T05:41:16;6.57;;;2.80;;
8704;SDS011;4389;41.932;25.904;2023-07-31T05:43:43;8.33;;;3.00;;
8704;SDS011;4389;41.932;25.904;2023-07-31T05:46:10;9.40;;;2.73;;
8704;SDS011;4389;41.932;25.904;2023-07-31T05:48:38;13.13;;;3.67;;
8704;SDS011;4389;41.932;25.904;2023-07-31T05:51:04;8.67;;;2.77;;
8704;SDS011;4389;41.932;25.904;2023-07-31T05:53:32;7.87;;;2.83;;
8704;SDS011;4389;41.932;25.904;2023-07-31T05:55:59;5.90;;;2.83;;
8704;SDS011;4389;41.932;25.904;2023-07-31T05:58:27;7.00;;;2.77;;
8704;SDS011;4389;41.932;25.904;2023-07-31T06:00:54;6.37;;;2.50;;
8704;SDS011;4389;41.932;25.904;2023-07-31T06:03:21;7.20;;;2.80;;
8704;SDS011;4389;41.932;25.904;2023-07-31T06:05:47;6.23;;;3.00;;
8704;SDS011;4389;41.932;25.904;2023-07-31T06:08:15;5.43;;;3.40;;
8704;SDS011;4389;41.932;25.904;2023-07-31T06:10:42;6.40;;;2.37;;
8704;SDS011;4389;41.932;25.904;2023-07-31T06:13:09;8.00;;;2.53;;
8704;SDS011;4389;41.932;25.904;2023-07-31T06:15:37;6.27;;;2.57;;
8704;SDS011;4389;41.932;25.904;2023-07-31T06:18:04;4.03;;;2.40;;
8704;SDS011;4389;41.932;25.904;2023-07-31T06:20:33;4.43;;;3.57;;
8704;SDS011;4389;41.932;25.904;2023-07-31T06:23:00;11.10;;;2.80;;
8704;SDS011;4389;41.932;25.904;2023-07-31T06:25:27;4.60;;;2.77;;
8704;SDS011;4389;41.932;25.904;2023-07-31T06:27:54;8.27;;;2.73;;
8704;SDS011;4389;41.932;25.904;2023-07-31T06:30:21;3.83;;;2.30;;
8704;SDS011;4389;41.932;25.904;2023-07-31T06:32:49;11.90;;;3.10;;
8704;SDS011;4389;41.932;25.904;2023-07-31T06:35:16;3.50;;;2.07;;
8704;SDS011;4389;41.932;25.904;2023-07-31T06:37:43;5.37;;;1.97;;
8704;SDS011;4389;41.932;25.904;2023-07-31T06:40:10;5.80;;;2.37;;
8704;SDS011;4389;41.932;25.904;2023-07-31T06:42:37;3.80;;;2.37;;
8704;SDS011;4389;41.932;25.904;2023-07-31T06:45:04;8.73;;;2.77;;
8704;SDS011;4389;41.932;25.904;2023-07-31T06:47:32;8.77;;;2.80;;
8704;SDS011;4389;41.932;25.904;2023-07-31T06:50:00;8.43;;;2.80;;
8704;SDS011;4389;41.932;25.904;2023-07-31T06:52:27;4.20;;;2.60;;
8704;SDS011;4389;41.932;25.904;2023-07-31T06:55:03;8.47;;;2.80;;
8704;SDS011;4389;41.932;25.904;2023-07-31T06:57:42;8.73;;;3.40;;
8704;SDS011;4389;41.932;25.904;2023-07-31T07:00:10;6.27;;;2.70;;
8704;SDS011;4389;41.932;25.904;2023-07-31T07:02:37;10.40;;;3.17;;
8704;SDS011;4389;41.932;25.904;2023-07-31T07:05:05;9.47;;;3.07;;
8704;SDS011;4389;41.932;25.904;2023-07-31T07:07:33;7.40;;;3.10;;
8704;SDS011;4389;41.932;25.904;2023-07-31T07:10:00;9.17;;;3.30;;
8704;SDS011;4389;41.932;25.904;2023-07-31T07:12:29;11.93;;;3.60;;
8704;SDS011;4389;41.932;25.904;2023-07-31T07:14:56;6.17;;;3.47;;
8704;SDS011;4389;41.932;25.904;2023-07-31T07:17:24;7.20;;;4.03;;
8704;SDS011;4389;41.932;25.904;2023-07-31T07:19:51;5.70;;;4.10;;
8704;SDS011;4389;41.932;25.904;2023-07-31T07:22:19;7.60;;;3.90;;
8704;SDS011;4389;41.932;25.904;2023-07-31T07:24:46;6.13;;;4.03;;
8704;SDS011;4389;41.932;25.904;2023-07-31T07:27:13;4.10;;;3.47;;
8704;SDS011;4389;41.932;25.904;2023-07-31T07:29:40;7.03;;;4.33;;
8704;SDS011;4389;41.932;25.904;2023-07-31T07:32:07;5.10;;;4.03;;
8704;SDS011;4389;41.932;25.904;2023-07-31T07:34:34;8.10;;;4.23;;
8704;SDS011;4389;41.932;25.904;2023-07-31T07:37:01;7.20;;;4.53;;
8704;SDS011;4389;41.932;25.904;2023-07-31T07:39:29;8.83;;;4.17;;
8704;SDS011;4389;41.932;25.904;2023-07-31T07:41:56;5.37;;;4.30;;
8704;SDS011;4389;41.932;25.904;2023-07-31T07:44:23;6.63;;;4.70;;
8704;SDS011;4389;41.932;25.904;2023-07-31T07:46:50;9.27;;;5.30;;
8704;SDS011;4389;41.932;25.904;2023-07-31T07:49:17;12.40;;;5.43;;
8704;SDS011;4389;41.932;25.904;2023-07-31T07:51:43;7.83;;;4.83;;
8704;SDS011;4389;41.932;25.904;2023-07-31T07:54:10;7.13;;;4.33;;
8704;SDS011;4389;41.932;25.904;2023-07-31T07:56:38;6.53;;;4.73;;
8704;SDS011;4389;41.932;25.904;2023-07-31T07:59:05;6.87;;;4.90;;
8704;SDS011;4389;41.932;25.904;2023-07-31T08:01:32;5.87;;;5.10;;
8704;SDS011;4389;41.932;25.904;2023-07-31T08:03:59;5.27;;;4.77;;
8704;SDS011;4389;41.932;25.904;2023-07-31T08:06:26;6.00;;;4.80;;
8704;SDS011;4389;41.932;25.904;2023-07-31T08:08:54;5.00;;;4.50;;
8704;SDS011;4389;41.932;25.904;2023-07-31T08:11:21;5.83;;;4.70;;
8704;SDS011;4389;41.932;25.904;2023-07-31T08:13:50;5.93;;;5.10;;
8704;SDS011;4389;41.932;25.904;2023-07-31T08:16:16;7.73;;;5.87;;
8704;SDS011;4389;41.932;25.904;2023-07-31T08:18:43;7.10;;;4.57;;
8704;SDS011;4389;41.932;25.904;2023-07-31T08:21:10;9.77;;;5.33;;
8704;SDS011;4389;41.932;25.904;2023-07-31T08:23:37;6.63;;;5.83;;
8704;SDS011;4389;41.932;25.904;2023-07-31T08:26:04;5.40;;;4.90;;
8704;SDS011;4389;41.932;25.904;2023-07-31T08:28:30;5.00;;;4.60;;
8704;SDS011;4389;41.932;25.904;2023-07-31T08:30:59;7.67;;;5.43;;
8704;SDS011;4389;41.932;25.904;2023-07-31T08:33:26;5.17;;;4.70;;
8704;SDS011;4389;41.932;25.904;2023-07-31T08:35:52;5.33;;;4.40;;
8704;SDS011;4389;41.932;25.904;2023-07-31T08:38:19;4.97;;;4.47;;
8704;SDS011;4389;41.932;25.904;2023-07-31T08:40:46;4.90;;;4.40;;
8704;SDS011;4389;41.932;25.904;2023-07-31T08:43:13;6.03;;;5.00;;
8704;SDS011;4389;41.932;25.904;2023-07-31T08:45:41;5.00;;;4.47;;
8704;SDS011;4389;41.932;25.904;2023-07-31T08:48:09;6.83;;;4.80;;
8704;SDS011;4389;41.932;25.904;2023-07-31T08:50:38;5.30;;;4.80;;
8704;SDS011;4389;41.932;25.904;2023-07-31T08:53:05;8.47;;;5.20;;
8704;SDS011;4389;41.932;25.904;2023-07-31T08:55:32;4.90;;;4.10;;
8704;SDS011;4389;41.932;25.904;2023-07-31T08:57:59;6.40;;;4.97;;
8704;SDS011;4389;41.932;25.904;2023-07-31T09:00:28;5.27;;;4.73;;
8704;SDS011;4389;41.932;25.904;2023-07-31T09:02:57;6.30;;;5.20;;
8704;SDS011;4389;41.932;25.904;2023-07-31T09:05:30;5.67;;;5.17;;
8704;SDS011;4389;41.932;25.904;2023-07-31T09:07:58;5.50;;;4.93;;
8704;SDS011;4389;41.932;25.904;2023-07-31T09:10:30;6.17;;;4.70;;
8704;SDS011;4389;41.932;25.904;2023-07-31T09:12:57;5.40;;;4.90;;
8704;SDS011;4389;41.932;25.904;2023-07-31T09:15:24;7.20;;;5.53;;
8704;SDS011;4389;41.932;25.904;2023-07-31T09:17:58;5.77;;;5.10;;
8704;SDS011;4389;41.932;25.904;2023-07-31T09:20:26;7.70;;;5.50;;
8704;SDS011;4389;41.932;25.904;2023-07-31T09:22:54;6.47;;;5.30;;
8704;SDS011;4389;41.932;25.904;2023-07-31T09:25:22;7.78;;;6.03;;
8704;SDS011;4389;41.932;25.904;2023-07-31T09:27:50;10.05;;;5.55;;
8704;SDS011;4389;41.932;25.904;2023-07-31T09:30:19;8.05;;;6.25;;
8704;SDS011;4389;41.932;25.904;2023-07-31T09:32:47;11.68;;;6.18;;
8704;SDS011;4389;41.932;25.904;2023-07-31T09:35:18;8.60;;;5.50;;
8704;SDS011;4389;41.932;25.904;2023-07-31T09:37:50;7.35;;;5.75;;
8704;SDS011;4389;41.932;25.904;2023-07-31T09:40:29;12.45;;;6.40;;
8704;SDS011;4389;41.932;25.904;2023-07-31T09:42:57;10.93;;;5.60;;
8704;SDS011;4389;41.932;25.904;2023-07-31T09:45:25;6.30;;;4.95;;
8704;SDS011;4389;41.932;25.904;2023-07-31T09:47:53;6.78;;;4.95;;
8704;SDS011;4389;41.932;25.904;2023-07-31T09:50:21;9.00;;;5.63;;
8704;SDS011;4389;41.932;25.904;2023-07-31T09:52:49;13.68;;;5.70;;
8704;SDS011;4389;41.932;25.904;2023-07-31T09:55:17;5.28;;;4.78;;
8704;SDS011;4389;41.932;25.904;2023-07-31T09:57:46;6.93;;;6.03;;
8704;SDS011;4389;41.932;25.904;2023-07-31T10:00:15;8.30;;;5.05;;
8704;SDS011;4389;41.932;25.904;2023-07-31T10:02:45;5.43;;;4.90;;
8704;SDS011;4389;41.932;25.904;2023-07-31T10:05:13;8.95;;;6.85;;
8704;SDS011;4389;41.932;25.904;2023-07-31T10:07:42;43.53;;;9.45;;
8704;SDS011;4389;41.932;25.904;2023-07-31T10:10:12;6.80;;;6.10;;
8704;SDS011;4389;41.932;25.904;2023-07-31T10:12:41;6.00;;;5.50;;
8704;SDS011;4389;41.932;25.904;2023-07-31T10:15:11;6.65;;;5.53;;
8704;SDS011;4389;41.932;25.904;2023-07-31T10:17:39;7.53;;;5.93;;
8704;SDS011;4389;41.932;25.904;2023-07-31T10:20:06;7.07;;;5.90;;
8704;SDS011;4389;41.932;25.904;2023-07-31T10:22:35;6.18;;;5.57;;
8704;SDS011;4389;41.932;25.904;2023-07-31T10:25:02;7.43;;;6.68;;
8704;SDS011;4389;41.932;25.904;2023-07-31T10:27:29;9.50;;;6.82;;
8704;SDS011;4389;41.932;25.904;2023-07-31T10:29:56;6.20;;;5.60;;
8704;SDS011;4389;41.932;25.904;2023-07-31T10:32:26;8.73;;;7.93;;
8704;SDS011;4389;41.932;25.904;2023-07-31T10:34:53;11.85;;;10.73;;
8704;SDS011;4389;41.932;25.904;2023-07-31T10:37:21;10.35;;;8.77;;
8704;SDS011;4389;41.932;25.904;2023-07-31T10:39:56;9.90;;;8.88;;
8704;SDS011;4389;41.932;25.904;2023-07-31T10:42:28;10.50;;;9.50;;
8704;SDS011;4389;41.932;25.904;2023-07-31T10:44:56;10.07;;;6.30;;
8704;SDS011;4389;41.932;25.904;2023-07-31T10:47:25;6.50;;;5.78;;
8704;SDS011;4389;41.932;25.904;2023-07-31T10:49:53;8.18;;;5.80;;
8704;SDS011;4389;41.932;25.904;2023-07-31T10:52:36;7.97;;;7.32;;
8704;SDS011;4389;41.932;25.904;2023-07-31T10:55:13;7.95;;;6.10;;
8704;SDS011;4389;41.932;25.904;2023-07-31T10:57:44;6.03;;;5.35;;
8704;SDS011;4389;41.932;25.904;2023-07-31T11:00:19;6.50;;;5.90;;
8704;SDS011;4389;41.932;25.904;2023-07-31T11:03:01;7.55;;;6.85;;
8704;SDS011;4389;41.932;25.904;2023-07-31T11:05:42;7.15;;;6.55;;
8704;SDS011;4389;41.932;25.904;2023-07-31T11:08:20;6.28;;;5.45;;
8704;SDS011;4389;41.932;25.904;2023-07-31T11:10:49;5.78;;;5.28;;
8704;SDS011;4389;41.932;25.904;2023-07-31T11:13:17;6.97;;;5.97;;
8704;SDS011;4389;41.932;25.904;2023-07-31T11:15:44;8.43;;;6.75;;
8704;SDS011;4389;41.932;25.904;2023-07-31T11:18:13;10.40;;;6.25;;
8704;SDS011;4389;41.932;25.904;2023-07-31T11:20:40;5.60;;;5.10;;
8704;SDS011;4389;41.932;25.904;2023-07-31T11:23:08;5.93;;;5.28;;
8704;SDS011;4389;41.932;25.904;2023-07-31T11:25:36;9.15;;;4.82;;
8704;SDS011;4389;41.932;25.904;2023-07-31T11:28:04;6.88;;;6.28;;
8704;SDS011;4389;41.932;25.904;2023-07-31T11:30:32;6.00;;;5.40;;
8704;SDS011;4389;41.932;25.904;2023-07-31T11:33:01;5.30;;;4.90;;
8704;SDS011;4389;41.932;25.904;2023-07-31T11:35:31;10.85;;;5.63;;
8704;SDS011;4389;41.932;25.904;2023-07-31T11:37:59;5.75;;;5.25;;
8704;SDS011;4389;41.932;25.904;2023-07-31T11:40:26;5.45;;;4.95;;
8704;SDS011;4389;41.932;25.904;2023-07-31T11:42:55;5.97;;;5.43;;
8704;SDS011;4389;41.932;25.904;2023-07-31T11:45:24;5.85;;;5.35;;
8704;SDS011;4389;41.932;25.904;2023-07-31T11:47:54;6.20;;;5.47;;
8704;SDS011;4389;41.932;25.904;2023-07-31T11:50:22;6.57;;;5.88;;
8704;SDS011;4389;41.932;25.904;2023-07-31T11:52:54;5.88;;;5.38;;
8704;SDS011;4389;41.932;25.904;2023-07-31T11:55:23;5.32;;;4.82;;
8704;SDS011;4389;41.932;25.904;2023-07-31T11:57:50;5.95;;;5.45;;
8704;SDS011;4389;41.932;25.904;2023-07-31T12:00:19;8.55;;;5.43;;
8704;SDS011;4389;41.932;25.904;2023-07-31T12:02:46;5.97;;;4.80;;
8704;SDS011;4389;41.932;25.904;2023-07-31T12:05:13;5.53;;;5.13;;
8704;SDS011;4389;41.932;25.904;2023-07-31T12:07:44;6.32;;;5.82;;
8704;SDS011;4389;41.932;25.904;2023-07-31T12:10:23;6.35;;;5.47;;
8704;SDS011;4389;41.932;25.904;2023-07-31T12:13:01;6.45;;;4.95;;
8704;SDS011;4389;41.932;25.904;2023-07-31T12:15:30;9.18;;;5.18;;
8704;SDS011;4389;41.932;25.904;2023-07-31T12:17:58;6.50;;;5.10;;
8704;SDS011;4389;41.932;25.904;2023-07-31T12:20:25;7.68;;;4.20;;
8704;SDS011;4389;41.932;25.904;2023-07-31T12:22:52;5.38;;;4.82;;
8704;SDS011;4389;41.932;25.904;2023-07-31T12:25:23;6.40;;;5.15;;
8704;SDS011;4389;41.932;25.904;2023-07-31T12:27:55;6.78;;;5.32;;
8704;SDS011;4389;41.932;25.904;2023-07-31T12:30:28;4.97;;;4.57;;
8704;SDS011;4389;41.932;25.904;2023-07-31T12:32:55;5.05;;;4.55;;
8704;SDS011;4389;41.932;25.904;2023-07-31T12:35:22;4.80;;;4.40;;
8704;SDS011;4389;41.932;25.904;2023-07-31T12:37:49;13.85;;;4.72;;
8704;SDS011;4389;41.932;25.904;2023-07-31T12:40:16;7.28;;;5.10;;
8704;SDS011;4389;41.932;25.904;2023-07-31T12:42:44;7.85;;;4.97;;
8704;SDS011;4389;41.932;25.904;2023-07-31T12:45:11;5.43;;;4.93;;
8704;SDS011;4389;41.932;25.904;2023-07-31T12:47:38;7.93;;;5.38;;
8704;SDS011;4389;41.932;25.904;2023-07-31T12:50:05;5.95;;;5.35;;
8704;SDS011;4389;41.932;25.904;2023-07-31T12:52:33;6.38;;;5.70;;
8704;SDS011;4389;41.932;25.904;2023-07-31T12:55:00;9.32;;;4.82;;
8704;SDS011;4389;41.932;25.904;2023-07-31T12:57:27;10.82;;;5.53;;
8704;SDS011;4389;41.932;25.904;2023-07-31T12:59:55;5.63;;;5.10;;
8704;SDS011;4389;41.932;25.904;2023-07-31T13:02:22;5.53;;;4.63;;
8704;SDS011;4389;41.932;25.904;2023-07-31T13:04:49;6.78;;;5.57;;
8704;SDS011;4389;41.932;25.904;2023-07-31T13:07:16;5.65;;;4.85;;
8704;SDS011;4389;41.932;25.904;2023-07-31T13:09:43;5.07;;;4.57;;
8704;SDS011;4389;41.932;25.904;2023-07-31T13:12:10;5.43;;;4.93;;
8704;SDS011;4389;41.932;25.904;2023-07-31T13:14:36;6.20;;;4.60;;
8704;SDS011;4389;41.932;25.904;2023-07-31T13:17:05;5.60;;;4.70;;
8704;SDS011;4389;41.932;25.904;2023-07-31T13:19:32;7.05;;;4.80;;
8704;SDS011;4389;41.932;25.904;2023-07-31T13:21:59;4.85;;;4.45;;
8704;SDS011;4389;41.932;25.904;2023-07-31T13:24:26;4.78;;;4.35;;
8704;SDS011;4389;41.932;25.904;2023-07-31T13:26:52;5.63;;;5.13;;
8704;SDS011;4389;41.932;25.904;2023-07-31T13:29:19;5.40;;;4.90;;
8704;SDS011;4389;41.932;25.904;2023-07-31T13:31:47;10.27;;;5.57;;
8704;SDS011;4389;41.932;25.904;2023-07-31T13:34:15;4.85;;;4.45;;
8704;SDS011;4389;41.932;25.904;2023-07-31T13:36:42;10.13;;;7.32;;
8704;SDS011;4389;41.932;25.904;2023-07-31T13:39:08;8.98;;;5.72;;
8704;SDS011;4389;41.932;25.904;2023-07-31T13:41:35;11.90;;;5.28;;
8704;SDS011;4389;41.932;25.904;2023-07-31T13:44:03;7.03;;;5.90;;
8704;SDS011;4389;41.932;25.904;2023-07-31T13:46:29;6.43;;;5.88;;
8704;SDS011;4389;41.932;25.904;2023-07-31T13:48:57;6.40;;;5.78;;
8704;SDS011;4389;41.932;25.904;2023-07-31T13:51:26;7.07;;;6.47;;
8704;SDS011;4389;41.932;25.904;2023-07-31T13:53:53;7.25;;;6.63;;
8704;SDS011;4389;41.932;25.904;2023-07-31T13:56:20;6.68;;;6.07;;
8704;SDS011;4389;41.932;25.904;2023-07-31T13:58:47;7.38;;;6.78;;
8704;SDS011;4389;41.932;25.904;2023-07-31T14:01:14;5.85;;;5.10;;
8704;SDS011;4389;41.932;25.904;2023-07-31T14:03:40;7.22;;;5.85;;
8704;SDS011;4389;41.932;25.904;2023-07-31T14:06:07;7.28;;;5.88;;
8704;SDS011;4389;41.932;25.904;2023-07-31T14:08:35;6.18;;;5.68;;
8704;SDS011;4389;41.932;25.904;2023-07-31T14:11:03;5.47;;;4.97;;
8704;SDS011;4389;41.932;25.904;2023-07-31T14:13:30;5.80;;;5.22;;
8704;SDS011;4389;41.932;25.904;2023-07-31T14:15:57;5.78;;;5.35;;
8704;SDS011;4389;41.932;25.904;2023-07-31T14:18:23;5.38;;;4.97;;
8704;SDS011;4389;41.932;25.904;2023-07-31T14:20:50;5.25;;;4.82;;
8704;SDS011;4389;41.932;25.904;2023-07-31T14:23:17;8.20;;;5.13;;
8704;SDS011;4389;41.932;25.904;2023-07-31T14:25:46;11.05;;;5.75;;
8704;SDS011;4389;41.932;25.904;2023-07-31T14:28:13;5.43;;;5.03;;
8704;SDS011;4389;41.932;25.904;2023-07-31T14:30:40;6.53;;;5.50;;
8704;SDS011;4389;41.932;25.904;2023-07-31T14:33:07;8.27;;;5.20;;
8704;SDS011;4389;41.932;25.904;2023-07-31T14:35:34;5.38;;;4.90;;
8704;SDS011;4389;41.932;25.904;2023-07-31T14:38:01;5.85;;;4.60;;
8704;SDS011;4389;41.932;25.904;2023-07-31T14:40:28;5.95;;;4.93;;
8704;SDS011;4389;41.932;25.904;2023-07-31T14:42:56;5.60;;;5.07;;
8704;SDS011;4389;41.932;25.904;2023-07-31T14:45:23;5.30;;;4.80;;
8704;SDS011;4389;41.932;25.904;2023-07-31T14:47:49;4.72;;;4.32;;
8704;SDS011;4389;41.932;25.904;2023-07-31T14:50:16;5.13;;;4.72;;
8704;SDS011;4389;41.932;25.904;2023-07-31T14:52:43;7.70;;;6.88;;
8704;SDS011;4389;41.932;25.904;2023-07-31T14:55:11;6.80;;;5.10;;
8704;SDS011;4389;41.932;25.904;2023-07-31T14:57:38;5.20;;;4.70;;
8704;SDS011;4389;41.932;25.904;2023-07-31T15:00:07;6.32;;;5.13;;
8704;SDS011;4389;41.932;25.904;2023-07-31T15:02:35;5.28;;;4.85;;
8704;SDS011;4389;41.932;25.904;2023-07-31T15:05:02;6.05;;;5.53;;
8704;SDS011;4389;41.932;25.904;2023-07-31T15:07:29;5.72;;;5.22;;